Time;durP1;ratioP1;P1;durP2;ratioP2;P2;SDS_P1;SDS_P2;PMS_P1;PMS_P2;Temp;Humidity;BMP_temperature;BMP_pressure;BME280_temperature;BME280_humidity;BME280_pressure;Samples;Min_cycle;Max_cycle;Signal;HPM_P1;HPM_P2
2023/01/31 00:01:16;;;;;;;0.70;0.70;;;-0.10;99.90;;;;;;5093770;28;20337;-75
2023/01/31 00:30:58;;;;;;;0.60;0.60;;;-0.10;99.90;;;;;;4561969;28;20238;-76
2023/01/31 00:33:24;;;;;;;0.60;0.60;;;-0.20;99.90;;;;;;5093033;28;20212;-76
2023/01/31 00:35:49;;;;;;;0.70;0.70;;;-0.50;99.90;;;;;;5093297;28;20192;-76
2023/01/31 00:38:15;;;;;;;0.70;0.70;;;-0.60;99.90;;;;;;5093113;28;20187;-76
2023/01/31 00:40:41;;;;;;;0.65;0.65;;;-0.70;99.90;;;;;;5074718;28;20200;-76
2023/01/31 00:43:06;;;;;;;0.70;0.70;;;-0.90;99.90;;;;;;5074736;28;20299;-76
2023/01/31 00:45:32;;;;;;;0.70;0.70;;;-1.10;99.90;;;;;;5093131;28;20612;-76
2023/01/31 00:47:58;;;;;;;0.57;0.57;;;-1.20;99.90;;;;;;5093029;28;20654;-75
2023/01/31 00:50:24;;;;;;;0.73;0.73;;;-1.30;99.90;;;;;;5092893;28;20195;-76
2023/01/31 00:52:50;;;;;;;0.60;0.60;;;-1.30;99.90;;;;;;5092693;28;20222;-75
2023/01/31 00:55:16;;;;;;;0.60;0.60;;;-1.40;99.90;;;;;;5074841;28;20212;-75
2023/01/31 00:57:42;;;;;;;0.70;0.70;;;-1.50;99.90;;;;;;5074702;28;20191;-76
2023/01/31 01:00:08;;;;;;;0.70;0.70;;;-1.40;99.90;;;;;;5092717;28;20655;-76
2023/01/31 01:02:34;;;;;;;0.60;0.60;;;-1.40;99.90;;;;;;5074079;28;20694;-76
2023/01/31 01:04:59;;;;;;;0.68;0.68;;;-1.20;99.90;;;;;;5092737;28;20274;-76
2023/01/31 01:07:25;;;;;;;0.60;0.60;;;-1.20;99.90;;;;;;5074701;28;20200;-75
2023/01/31 01:09:53;;;;;;;0.70;0.70;;;-1.20;99.90;;;;;;5092893;28;20674;-76
2023/01/31 01:12:18;;;;;;;0.60;0.60;;;-1.30;99.90;;;;;;5074368;28;20650;-76
2023/01/31 01:14:44;;;;;;;0.70;0.70;;;-1.20;99.90;;;;;;5093236;28;20196;-76
2023/01/31 01:17:10;;;;;;;0.70;0.70;;;-1.10;99.90;;;;;;5095773;28;20269;-75
2023/01/31 01:19:36;;;;;;;0.80;0.80;;;-1.30;99.90;;;;;;5078281;28;20208;-76
2023/01/31 01:22:03;;;;;;;0.50;0.50;;;-1.40;99.90;;;;;;5096838;28;20222;-76
2023/01/31 01:24:29;;;;;;;0.60;0.60;;;-1.40;99.90;;;;;;5096661;28;20188;-75
2023/01/31 01:26:55;;;;;;;0.70;0.70;;;-1.40;99.90;;;;;;5096822;28;20549;-76
2023/01/31 01:29:20;;;;;;;0.70;0.70;;;-1.40;99.90;;;;;;5077943;28;20192;-76
2023/01/31 01:31:46;;;;;;;0.70;0.70;;;-1.40;99.90;;;;;;5078529;28;20666;-76
2023/01/31 01:34:14;;;;;;;0.52;0.52;;;-1.40;99.90;;;;;;5078304;28;20203;-76
2023/01/31 01:36:41;;;;;;;0.80;0.80;;;-1.40;99.90;;;;;;5096360;28;20196;-76
2023/01/31 01:39:09;;;;;;;0.60;0.60;;;-1.40;99.90;;;;;;5078686;28;20200;-75
2023/01/31 01:41:36;;;;;;;0.75;0.75;;;-1.40;99.90;;;;;;5078152;28;20219;-76
2023/01/31 01:44:39;;;;;;;0.80;0.80;;;-1.50;99.90;;;;;;5078371;28;20192;-76
2023/01/31 01:47:27;;;;;;;0.70;0.70;;;-1.40;99.90;;;;;;5096302;28;20184;-75
2023/01/31 01:50:21;;;;;;;0.70;0.70;;;-1.30;99.90;;;;;;5096364;28;20638;-75
2023/01/31 01:52:57;;;;;;;0.73;0.73;;;-1.20;99.90;;;;;;5085153;28;20579;-76
2023/01/31 01:55:25;;;;;;;0.55;0.55;;;-1.10;99.90;;;;;;5095721;28;20208;-76
2023/01/31 01:57:55;;;;;;;0.70;0.70;;;-1.20;99.90;;;;;;5096228;28;20290;-75
2023/01/31 02:00:24;;;;;;;0.52;0.52;;;-1.10;99.90;;;;;;5096272;28;20196;-76
2023/01/31 02:02:54;;;;;;;0.60;0.60;;;-1.20;99.90;;;;;;5094685;28;20730;-76
2023/01/31 02:05:25;;;;;;;0.60;0.60;;;-1.10;99.90;;;;;;5104913;22;20254;-70
2023/01/31 02:07:50;;;;;;;0.60;0.60;;;-1.20;99.90;;;;;;5096191;28;20188;-69
2023/01/31 02:10:20;;;;;;;0.60;0.60;;;-1.10;99.90;;;;;;5095911;28;20241;-69
2023/01/31 02:12:46;;;;;;;0.70;0.70;;;-1.20;99.90;;;;;;5095906;28;20188;-68
2023/01/31 02:15:12;;;;;;;0.80;0.80;;;-1.10;99.90;;;;;;5095807;28;20695;-68
2023/01/31 02:17:38;;;;;;;0.90;0.90;;;-1.30;99.90;;;;;;5086837;28;20209;-68
2023/01/31 02:20:38;;;;;;;0.60;0.60;;;-1.40;99.90;;;;;;5075466;28;20184;-69
2023/01/31 02:23:22;;;;;;;0.80;0.80;;;-1.40;99.90;;;;;;5071284;28;20217;-68
2023/01/31 02:26:05;;;;;;;0.63;0.63;;;-1.30;99.90;;;;;;5087965;28;20265;-68
2023/01/31 02:29:18;;;;;;;0.60;0.60;;;-1.10;99.90;;;;;;5095015;28;20192;-69
2023/01/31 02:31:58;;;;;;;0.50;0.50;;;-1.10;99.90;;;;;;5077549;28;20211;-68
2023/01/31 02:34:35;;;;;;;0.70;0.70;;;-1.30;99.90;;;;;;5077160;28;20658;-69
2023/01/31 02:37:04;;;;;;;0.80;0.80;;;-1.30;99.90;;;;;;5077152;28;20192;-69
2023/01/31 02:40:01;;;;;;;0.70;0.70;;;-1.30;99.90;;;;;;5095255;28;20267;-70
2023/01/31 02:42:31;;;;;;;0.70;0.70;;;-1.50;99.90;;;;;;5063497;28;20686;-69
2023/01/31 02:45:21;;;;;;;0.80;0.80;;;-1.70;99.90;;;;;;5095232;28;20237;-68
2023/01/31 02:48:06;;;;;;;0.60;0.60;;;-1.60;99.90;;;;;;5095274;28;20184;-67
2023/01/31 02:50:54;;;;;;;0.70;0.70;;;-1.60;99.90;;;;;;5095018;28;20599;-69
2023/01/31 02:53:34;;;;;;;0.80;0.80;;;-1.70;99.90;;;;;;5094839;28;20642;-70
2023/01/31 02:56:17;;;;;;;0.70;0.70;;;-1.70;99.90;;;;;;5095168;28;20271;-68
2023/01/31 02:58:52;;;;;;;0.95;0.95;;;-1.60;99.90;;;;;;5094856;28;20279;-70
2023/01/31 03:01:24;;;;;;;0.75;0.75;;;-1.70;99.90;;;;;;5094346;28;20670;-69
2023/01/31 03:03:51;;;;;;;0.70;0.70;;;-1.80;99.90;;;;;;5076446;28;20218;-68
2023/01/31 03:06:22;;;;;;;0.70;0.70;;;-1.80;99.90;;;;;;5094896;28;20184;-70
2023/01/31 03:08:56;;;;;;;0.60;0.60;;;-1.70;99.90;;;;;;5094815;28;20199;-68
2023/01/31 03:11:31;;;;;;;0.73;0.73;;;-1.60;99.90;;;;;;5094657;28;20219;-68
2023/01/31 03:14:22;;;;;;;0.50;0.50;;;-1.50;99.90;;;;;;5094640;28;20649;-68
2023/01/31 03:19:46;;;;;;;0.70;0.70;;;-1.40;99.90;;;;;;5074252;28;20203;-69
2023/01/31 03:22:17;;;;;;;0.80;0.80;;;-1.30;99.90;;;;;;5088229;28;20243;-68
2023/01/31 03:24:47;;;;;;;0.63;0.63;;;-1.30;99.90;;;;;;5094306;28;20188;-68
2023/01/31 03:27:14;;;;;;;0.63;0.63;;;-1.30;99.90;;;;;;5094414;28;20503;-68
2023/01/31 03:29:41;;;;;;;0.70;0.70;;;-1.30;99.90;;;;;;5076131;28;20192;-68
2023/01/31 03:32:31;;;;;;;0.70;0.70;;;-1.30;99.90;;;;;;5076242;28;20196;-69
2023/01/31 03:34:57;;;;;;;0.60;0.60;;;-1.40;99.90;;;;;;5094260;28;20253;-68
2023/01/31 03:37:39;;;;;;;0.70;0.70;;;-1.40;99.90;;;;;;5094038;28;20269;-69
2023/01/31 03:40:20;;;;;;;0.60;0.60;;;-1.50;99.90;;;;;;5093615;28;20279;-69
2023/01/31 03:42:48;;;;;;;0.65;0.65;;;-1.50;99.90;;;;;;5094017;28;20204;-68
2023/01/31 03:45:37;;;;;;;0.70;0.70;;;-1.70;99.90;;;;;;5094234;28;20184;-69
2023/01/31 03:48:09;;;;;;;0.60;0.60;;;-1.60;99.90;;;;;;5093823;28;20192;-68
2023/01/31 03:50:47;;;;;;;0.70;0.70;;;-1.60;99.90;;;;;;5092359;28;20200;-69
2023/01/31 03:53:23;;;;;;;0.75;0.75;;;-1.50;99.90;;;;;;5094349;28;20738;-69
2023/01/31 03:55:54;;;;;;;0.70;0.70;;;-1.50;99.90;;;;;;5093854;28;20222;-70
2023/01/31 03:58:24;;;;;;;0.60;0.60;;;-1.40;99.90;;;;;;5092415;28;20251;-70
2023/01/31 04:00:53;;;;;;;0.80;0.80;;;-1.40;99.90;;;;;;5093763;28;20272;-69
2023/01/31 04:03:33;;;;;;;0.70;0.70;;;-1.50;99.90;;;;;;5092514;28;20204;-70
2023/01/31 04:05:59;;;;;;;0.80;0.80;;;-1.60;99.90;;;;;;5093101;28;20247;-68
2023/01/31 04:08:25;;;;;;;0.70;0.70;;;-1.50;99.90;;;;;;5074350;28;20239;-70
2023/01/31 04:10:51;;;;;;;0.60;0.60;;;-1.60;99.90;;;;;;5074801;28;20196;-69
2023/01/31 04:13:17;;;;;;;0.70;0.70;;;-1.50;99.90;;;;;;5092779;28;20196;-69
2023/01/31 04:15:42;;;;;;;0.70;0.70;;;-1.50;99.90;;;;;;5092520;28;20188;-69
2023/01/31 04:18:08;;;;;;;0.60;0.60;;;-1.50;99.90;;;;;;5074272;28;20200;-69
2023/01/31 04:20:34;;;;;;;0.77;0.77;;;-1.40;99.90;;;;;;5092476;28;20192;-69
2023/01/31 04:23:05;;;;;;;0.60;0.60;;;-1.30;99.90;;;;;;5074463;28;20219;-68
2023/01/31 04:25:31;;;;;;;0.77;0.77;;;-1.30;99.90;;;;;;5092462;28;20193;-69
2023/01/31 04:27:57;;;;;;;0.70;0.70;;;-1.20;99.90;;;;;;5092631;28;20188;-69
2023/01/31 04:30:22;;;;;;;0.70;0.70;;;-1.20;99.90;;;;;;5092291;28;20245;-69
2023/01/31 04:32:48;;;;;;;0.73;0.73;;;-1.10;99.90;;;;;;5092582;28;20218;-68
2023/01/31 04:35:14;;;;;;;0.70;0.70;;;-1.10;99.90;;;;;;5092778;28;20208;-69
2023/01/31 04:37:40;;;;;;;0.70;0.70;;;-1.00;99.90;;;;;;5092240;28;20200;-68
2023/01/31 04:40:06;;;;;;;0.70;0.70;;;-1.00;99.90;;;;;;5074264;28;20210;-69
2023/01/31 04:42:32;;;;;;;0.63;0.63;;;-1.10;99.90;;;;;;5073772;28;20215;-68
2023/01/31 04:44:58;;;;;;;0.60;0.60;;;-1.10;99.90;;;;;;5073809;28;20585;-68
2023/01/31 04:47:24;;;;;;;0.70;0.70;;;-1.00;99.90;;;;;;5092069;28;20329;-69
2023/01/31 04:49:50;;;;;;;0.70;0.70;;;-1.00;99.90;;;;;;5092111;28;20192;-68
2023/01/31 04:52:16;;;;;;;0.60;0.60;;;-1.10;99.90;;;;;;5092302;28;20225;-68
2023/01/31 04:54:42;;;;;;;0.70;0.70;;;-1.00;99.90;;;;;;5073624;28;20253;-69
2023/01/31 04:57:07;;;;;;;0.70;0.70;;;-0.90;99.90;;;;;;5092323;28;20192;-68
2023/01/31 04:59:33;;;;;;;0.60;0.60;;;-0.90;99.90;;;;;;5091971;28;20196;-68
2023/01/31 05:01:59;;;;;;;0.70;0.70;;;-1.00;99.90;;;;;;5091981;28;20210;-68
2023/01/31 05:04:25;;;;;;;0.60;0.60;;;-1.00;99.90;;;;;;5043254;28;1379170;-69
2023/01/31 05:06:51;;;;;;;0.60;0.60;;;-1.00;99.90;;;;;;5092901;28;20237;-69
2023/01/31 05:09:17;;;;;;;0.60;0.60;;;-1.10;99.90;;;;;;5092955;28;20199;-69
2023/01/31 05:11:43;;;;;;;0.70;0.70;;;-1.20;99.90;;;;;;5092792;28;20188;-69
2023/01/31 05:14:09;;;;;;;0.70;0.70;;;-1.20;99.90;;;;;;5092507;28;20196;-68
2023/01/31 05:16:35;;;;;;;0.52;0.52;;;-1.10;99.90;;;;;;5092916;28;20199;-68
2023/01/31 05:19:01;;;;;;;0.68;0.68;;;-1.20;99.90;;;;;;5072686;28;20235;-68
2023/01/31 05:21:26;;;;;;;0.55;0.55;;;-1.20;99.90;;;;;;5072331;28;20654;-69
2023/01/31 05:23:52;;;;;;;0.70;0.70;;;-1.20;99.90;;;;;;5072596;28;20201;-69
2023/01/31 05:26:18;;;;;;;0.70;0.70;;;-1.20;99.90;;;;;;5054577;28;20196;-69
2023/01/31 05:28:43;;;;;;;0.60;0.60;;;-1.20;99.90;;;;;;5072381;28;20201;-68
2023/01/31 05:31:11;;;;;;;0.60;0.60;;;-1.30;99.90;;;;;;5072497;28;20221;-68
2023/01/31 05:33:38;;;;;;;0.60;0.60;;;-1.40;99.90;;;;;;5072178;28;20200;-68
2023/01/31 05:36:04;;;;;;;0.75;0.75;;;-1.50;99.90;;;;;;5072469;28;20185;-68
2023/01/31 05:38:29;;;;;;;0.65;0.65;;;-1.50;99.90;;;;;;5072222;28;20200;-68
2023/01/31 05:40:55;;;;;;;0.60;0.60;;;-1.60;99.90;;;;;;5086276;28;20200;-70
2023/01/31 05:43:21;;;;;;;0.60;0.60;;;-1.70;99.90;;;;;;5091065;28;20592;-68
2023/01/31 05:45:49;;;;;;;0.70;0.70;;;-1.70;99.90;;;;;;5091684;28;20200;-69
2023/01/31 05:48:15;;;;;;;0.60;0.60;;;-1.70;99.90;;;;;;5092629;28;20203;-68
2023/01/31 05:50:41;;;;;;;0.63;0.63;;;-1.80;99.90;;;;;;5092328;28;20192;-69
2023/01/31 05:53:08;;;;;;;0.60;0.60;;;-1.90;99.90;;;;;;5092459;28;20196;-68
2023/01/31 05:55:33;;;;;;;0.77;0.77;;;-2.00;99.90;;;;;;5090973;28;20196;-69
2023/01/31 05:57:59;;;;;;;0.70;0.70;;;-2.10;99.90;;;;;;5092587;28;20200;-69
2023/01/31 06:00:25;;;;;;;0.60;0.60;;;-2.10;99.90;;;;;;5091029;28;20223;-68
2023/01/31 06:02:51;;;;;;;0.70;0.70;;;-2.20;99.90;;;;;;5094657;28;20220;-68
2023/01/31 06:05:17;;;;;;;0.60;0.60;;;-2.20;99.90;;;;;;5096009;28;20281;-68
2023/01/31 06:07:43;;;;;;;0.68;0.68;;;-2.20;99.90;;;;;;5096106;28;20204;-69
2023/01/31 06:10:10;;;;;;;0.70;0.70;;;-2.10;99.90;;;;;;5095869;28;20196;-68
2023/01/31 06:12:36;;;;;;;0.70;0.70;;;-2.10;99.90;;;;;;5096086;28;20199;-69
2023/01/31 06:15:03;;;;;;;0.70;0.70;;;-2.20;99.90;;;;;;5077776;28;20196;-68
2023/01/31 06:17:29;;;;;;;0.70;0.70;;;-2.20;99.90;;;;;;5088248;28;20550;-69
2023/01/31 06:19:54;;;;;;;0.90;0.90;;;-2.20;99.90;;;;;;5075692;28;20197;-68
2023/01/31 06:22:20;;;;;;;0.75;0.75;;;-2.30;99.90;;;;;;5075449;28;20570;-68
2023/01/31 06:24:46;;;;;;;0.70;0.70;;;-2.30;99.90;;;;;;5075501;28;20197;-69
2023/01/31 06:27:12;;;;;;;0.60;0.60;;;-2.40;99.90;;;;;;5075467;28;20200;-68
2023/01/31 06:29:37;;;;;;;0.68;0.68;;;-2.40;99.90;;;;;;5057454;28;20250;-69
2023/01/31 06:32:04;;;;;;;0.70;0.70;;;-2.30;99.90;;;;;;5075683;28;20206;-68
2023/01/31 06:34:29;;;;;;;0.70;0.70;;;-2.30;99.90;;;;;;5075231;28;20204;-69
2023/01/31 06:36:55;;;;;;;0.70;0.70;;;-2.40;99.90;;;;;;5087142;28;20580;-68
2023/01/31 06:39:21;;;;;;;0.73;0.73;;;-2.40;99.90;;;;;;5095623;28;20257;-69
2023/01/31 06:41:47;;;;;;;0.70;0.70;;;-2.40;99.90;;;;;;5095269;28;20212;-68
2023/01/31 06:44:12;;;;;;;0.70;0.70;;;-2.40;99.90;;;;;;5095470;28;20219;-68
2023/01/31 06:46:38;;;;;;;0.50;0.50;;;-2.30;99.90;;;;;;5095282;28;20203;-69
2023/01/31 06:49:04;;;;;;;0.50;0.50;;;-2.30;99.90;;;;;;5095350;28;20666;-68
2023/01/31 06:51:30;;;;;;;0.73;0.73;;;-2.40;99.90;;;;;;5077005;28;20200;-68
2023/01/31 06:53:55;;;;;;;0.70;0.70;;;-2.40;99.90;;;;;;5095399;28;20184;-68
2023/01/31 06:56:22;;;;;;;0.73;0.73;;;-2.30;99.90;;;;;;5094948;28;20200;-70
2023/01/31 06:58:47;;;;;;;0.80;0.80;;;-2.40;99.90;;;;;;5076982;28;20192;-68
2023/01/31 07:01:14;;;;;;;0.60;0.60;;;-2.40;99.90;;;;;;5095021;28;20195;-69
2023/01/31 07:03:40;;;;;;;0.73;0.73;;;-2.40;99.90;;;;;;5094311;28;20208;-69
2023/01/31 07:06:07;;;;;;;0.60;0.60;;;-2.50;99.90;;;;;;5094676;28;20275;-68
2023/01/31 07:08:33;;;;;;;0.70;0.70;;;-2.50;99.90;;;;;;5094860;28;20214;-68
2023/01/31 07:11:02;;;;;;;0.70;0.70;;;-2.40;99.90;;;;;;5095284;28;20188;-68
2023/01/31 07:13:28;;;;;;;0.70;0.70;;;-2.40;99.90;;;;;;5093639;28;20193;-69
2023/01/31 07:15:55;;;;;;;0.70;0.70;;;-2.40;99.90;;;;;;5076684;28;20196;-68
2023/01/31 07:18:20;;;;;;;0.60;0.60;;;-2.50;99.90;;;;;;5079890;28;20707;-75
2023/01/31 07:20:46;;;;;;;0.60;0.60;;;-2.60;99.90;;;;;;5074594;28;20225;-74
2023/01/31 07:23:12;;;;;;;0.70;0.70;;;-2.70;99.90;;;;;;5074392;28;20597;-74
2023/01/31 07:25:37;;;;;;;0.80;0.80;;;-2.80;99.90;;;;;;5066790;28;20223;-74
2023/01/31 07:28:04;;;;;;;0.70;0.70;;;-2.80;99.90;;;;;;5076351;28;20196;-69
2023/01/31 07:30:30;;;;;;;0.63;0.63;;;-2.90;99.90;;;;;;5076189;28;20188;-69
2023/01/31 07:32:55;;;;;;;0.60;0.60;;;-3.00;99.90;;;;;;5076034;28;20204;-68
2023/01/31 07:35:21;;;;;;;0.80;0.80;;;-3.00;99.90;;;;;;5094063;28;20250;-70
2023/01/31 07:37:50;;;;;;;0.70;0.70;;;-3.10;99.90;;;;;;5093087;28;20204;-68
2023/01/31 07:40:16;;;;;;;0.60;0.60;;;-3.10;99.90;;;;;;5094304;28;20273;-68
2023/01/31 07:42:41;;;;;;;0.60;0.60;;;-3.10;99.90;;;;;;5093914;28;20253;-69
2023/01/31 07:45:10;;;;;;;0.60;0.60;;;-3.10;99.90;;;;;;5094276;28;20275;-68
2023/01/31 07:47:36;;;;;;;0.70;0.70;;;-3.10;99.90;;;;;;5092616;28;20192;-68
2023/01/31 07:50:02;;;;;;;0.60;0.60;;;-3.10;99.90;;;;;;5092808;28;20199;-68
2023/01/31 07:52:28;;;;;;;0.60;0.60;;;-3.10;99.90;;;;;;5093896;28;20203;-67
2023/01/31 07:54:53;;;;;;;0.63;0.63;;;-3.10;99.90;;;;;;5093956;28;20662;-68
2023/01/31 07:57:19;;;;;;;0.60;0.60;;;-3.00;99.90;;;;;;5093857;28;20187;-69
2023/01/31 07:59:45;;;;;;;0.65;0.65;;;-3.10;99.90;;;;;;5094187;28;20279;-68
2023/01/31 08:05:00;;;;;;;0.60;0.60;;;-3.20;99.90;;;;;;5093679;28;20596;-68
2023/01/31 08:07:27;;;;;;;0.65;0.65;;;-3.20;99.90;;;;;;5093680;28;20192;-68
2023/01/31 08:09:53;;;;;;;0.70;0.70;;;-3.20;99.90;;;;;;5094264;28;20541;-68
2023/01/31 08:12:19;;;;;;;0.70;0.70;;;-3.10;99.90;;;;;;5093546;28;20196;-69
2023/01/31 08:14:45;;;;;;;0.70;0.70;;;-3.20;99.90;;;;;;5075336;28;20220;-68
2023/01/31 08:17:11;;;;;;;0.60;0.60;;;-3.10;99.90;;;;;;5071808;28;20244;-68
2023/01/31 08:19:37;;;;;;;0.60;0.60;;;-3.00;99.90;;;;;;5073097;28;20196;-67
2023/01/31 08:22:04;;;;;;;0.80;0.80;;;-3.00;99.90;;;;;;5085236;28;20574;-68
2023/01/31 08:24:30;;;;;;;0.70;0.70;;;-2.90;99.90;;;;;;5093191;28;20184;-69
2023/01/31 08:26:57;;;;;;;0.65;0.65;;;-2.90;99.90;;;;;;5093758;28;20185;-68
2023/01/31 08:29:23;;;;;;;0.65;0.65;;;-2.80;99.90;;;;;;5067213;28;20195;-69
2023/01/31 08:31:50;;;;;;;0.65;0.65;;;-2.80;99.90;;;;;;5093390;28;20225;-68
2023/01/31 08:34:15;;;;;;;0.70;0.70;;;-2.80;99.90;;;;;;5093544;28;20216;-68
2023/01/31 08:36:42;;;;;;;0.60;0.60;;;-2.80;99.90;;;;;;5093095;28;20289;-69
2023/01/31 08:39:08;;;;;;;0.70;0.70;;;-2.80;99.90;;;;;;5093321;28;20200;-68
2023/01/31 08:41:36;;;;;;;0.70;0.70;;;-2.80;99.90;;;;;;5092853;28;20259;-68
2023/01/31 08:44:03;;;;;;;0.70;0.70;;;-2.70;99.90;;;;;;5093104;28;20196;-69
2023/01/31 08:46:34;;;;;;;0.80;0.80;;;-2.70;99.90;;;;;;5075342;28;20225;-68
2023/01/31 08:49:01;;;;;;;0.70;0.70;;;-2.70;99.90;;;;;;5093143;28;20719;-70
2023/01/31 08:51:27;;;;;;;0.70;0.70;;;-2.50;99.90;;;;;;5092922;28;20196;-68
2023/01/31 08:53:53;;;;;;;0.70;0.70;;;-2.50;99.90;;;;;;5093155;28;20191;-69
2023/01/31 08:56:20;;;;;;;0.70;0.70;;;-2.40;99.90;;;;;;5092858;28;20187;-70
2023/01/31 08:58:46;;;;;;;0.60;0.60;;;-2.40;99.90;;;;;;5092722;28;20283;-69
2023/01/31 09:01:17;;;;;;;0.50;0.50;;;-2.30;99.90;;;;;;5092858;28;20301;-68
2023/01/31 09:03:44;;;;;;;0.60;0.60;;;-2.10;99.90;;;;;;5074106;28;20326;-69
2023/01/31 09:06:18;;;;;;;0.63;0.63;;;-2.00;99.90;;;;;;5093202;28;20203;-68
2023/01/31 09:08:44;;;;;;;0.80;0.80;;;-1.90;99.90;;;;;;5074907;28;20195;-69
2023/01/31 09:11:16;;;;;;;0.70;0.70;;;-1.80;99.90;;;;;;5074548;28;20192;-69
2023/01/31 09:13:42;;;;;;;0.70;0.70;;;-1.80;99.90;;;;;;5092550;28;20195;-68
2023/01/31 09:16:09;;;;;;;0.70;0.70;;;-1.70;99.90;;;;;;5092840;28;20200;-69
2023/01/31 09:18:37;;;;;;;0.60;0.60;;;-1.60;99.90;;;;;;5073976;28;20571;-70
2023/01/31 09:21:05;;;;;;;0.70;0.70;;;-1.40;99.90;;;;;;5074597;28;20200;-69
2023/01/31 09:23:31;;;;;;;0.68;0.68;;;-1.30;99.90;;;;;;5092254;28;20211;-70
2023/01/31 09:25:56;;;;;;;0.60;0.60;;;-1.20;99.90;;;;;;5092410;28;20556;-69
2023/01/31 09:28:23;;;;;;;0.70;0.70;;;-1.10;99.90;;;;;;5092389;28;20192;-69
2023/01/31 09:30:52;;;;;;;0.60;0.60;;;-1.00;99.90;;;;;;5092458;28;20710;-69
2023/01/31 09:33:19;;;;;;;0.80;0.80;;;-0.90;99.90;;;;;;5091301;28;20192;-69
2023/01/31 09:35:58;;;;;;;0.60;0.60;;;-0.80;99.90;;;;;;5091035;28;20231;-69
2023/01/31 09:38:25;;;;;;;0.63;0.63;;;-0.70;99.90;;;;;;5095832;28;20237;-68
2023/01/31 09:40:51;;;;;;;0.70;0.70;;;-0.70;99.90;;;;;;5096537;28;20188;-68
2023/01/31 09:43:21;;;;;;;0.50;0.50;;;-0.60;99.90;;;;;;5096336;28;20245;-69
2023/01/31 09:45:48;;;;;;;0.68;0.68;;;-0.50;99.90;;;;;;5096483;28;20196;-69
2023/01/31 09:48:21;;;;;;;0.50;0.50;;;-0.50;99.90;;;;;;5096328;28;20664;-68
2023/01/31 09:50:50;;;;;;;0.70;0.70;;;-0.50;99.90;;;;;;5096305;28;20226;-69
2023/01/31 09:53:20;;;;;;;0.50;0.50;;;-0.40;99.90;;;;;;5078083;28;20196;-70
2023/01/31 09:55:55;;;;;;;0.60;0.60;;;-0.40;99.90;;;;;;5096249;28;20192;-69
2023/01/31 09:58:53;;;;;;;0.60;0.60;;;-0.30;99.90;;;;;;5078004;28;20715;-69
2023/01/31 10:01:34;;;;;;;0.60;0.60;;;-0.30;99.90;;;;;;5075910;28;20239;-69
2023/01/31 10:04:03;;;;;;;0.60;0.60;;;-0.20;99.90;;;;;;5077378;28;20889;-69
2023/01/31 10:06:42;;;;;;;0.68;0.68;;;-0.10;99.90;;;;;;5096210;28;20291;-69
2023/01/31 10:09:16;;;;;;;0.50;0.50;;;0.00;99.90;;;;;;5077909;28;20192;-70
2023/01/31 10:12:08;;;;;;;0.63;0.63;;;0.20;99.90;;;;;;5095806;28;20188;-69
2023/01/31 10:14:42;;;;;;;0.68;0.68;;;0.30;99.90;;;;;;5077683;28;20199;-68
2023/01/31 10:17:23;;;;;;;0.63;0.63;;;0.50;99.90;;;;;;5091308;28;20195;-68
2023/01/31 10:19:51;;;;;;;0.57;0.57;;;0.70;99.90;;;;;;5075764;28;20193;-68
2023/01/31 10:22:35;;;;;;;0.70;0.70;;;0.80;99.90;;;;;;5068618;28;20212;-69
2023/01/31 10:25:31;;;;;;;0.70;0.70;;;1.00;99.90;;;;;;5075762;28;20256;-68
2023/01/31 10:28:03;;;;;;;0.60;0.60;;;1.20;99.90;;;;;;5057034;28;20270;-68
2023/01/31 10:30:57;;;;;;;0.47;0.47;;;1.20;99.90;;;;;;5075261;28;20614;-68
2023/01/31 10:33:38;;;;;;;0.70;0.70;;;1.40;99.90;;;;;;5073974;28;20213;-69
2023/01/31 10:36:23;;;;;;;0.70;0.70;;;1.60;99.90;;;;;;5075369;28;20197;-68
2023/01/31 10:39:20;;;;;;;0.70;0.70;;;1.70;99.90;;;;;;5075432;28;20534;-68
2023/01/31 10:41:59;;;;;;;0.80;0.80;;;1.90;99.90;;;;;;5075054;28;20212;-68
2023/01/31 10:44:43;;;;;;;0.60;0.60;;;2.10;99.90;;;;;;5075006;28;20688;-70
2023/01/31 10:47:12;;;;;;;0.70;0.70;;;2.20;99.90;;;;;;5075177;28;20246;-70
2023/01/31 10:49:39;;;;;;;0.60;0.60;;;2.50;99.90;;;;;;5056927;28;20208;-68
2023/01/31 10:52:38;;;;;;;0.65;0.65;;;2.70;99.90;;;;;;5087927;28;20215;-69
2023/01/31 10:55:32;;;;;;;0.70;0.70;;;2.80;99.90;;;;;;5077178;28;20532;-69
2023/01/31 10:57:58;;;;;;;0.63;0.63;;;2.90;99.90;;;;;;5077048;28;20204;-68
2023/01/31 11:00:30;;;;;;;0.63;0.63;;;2.90;99.90;;;;;;5094983;28;20571;-69
2023/01/31 11:02:57;;;;;;;0.70;0.70;;;2.90;99.90;;;;;;5094888;28;20692;-68
2023/01/31 11:05:26;;;;;;;0.60;0.60;;;2.70;99.90;;;;;;5076548;28;20234;-69
2023/01/31 11:07:54;;;;;;;0.57;0.57;;;2.70;99.90;;;;;;5095204;28;20224;-70
2023/01/31 11:10:50;;;;;;;1.65;1.55;;;2.60;99.90;;;;;;5094771;28;20245;-69
2023/01/31 11:13:18;;;;;;;0.55;0.55;;;2.60;99.90;;;;;;5076929;28;20196;-68
2023/01/31 11:15:44;;;;;;;0.70;0.70;;;2.60;99.90;;;;;;5094604;28;20254;-69
2023/01/31 11:18:25;;;;;;;0.70;0.70;;;2.60;99.90;;;;;;5093404;28;20200;-68
2023/01/31 11:20:52;;;;;;;0.70;0.70;;;2.50;99.90;;;;;;5093435;28;20200;-69
2023/01/31 11:23:24;;;;;;;0.80;0.80;;;2.50;99.90;;;;;;5093380;28;20265;-69
2023/01/31 11:25:51;;;;;;;1.85;1.25;;;2.40;99.90;;;;;;5094814;28;20244;-69
2023/01/31 11:28:37;;;;;;;0.77;0.77;;;2.40;99.90;;;;;;5094715;28;20559;-68
2023/01/31 11:31:23;;;;;;;0.55;0.55;;;2.30;99.90;;;;;;5094549;28;20199;-69
2023/01/31 11:34:00;;;;;;;0.70;0.70;;;2.40;99.90;;;;;;5093406;28;20196;-69
2023/01/31 11:36:41;;;;;;;0.65;0.65;;;2.50;99.90;;;;;;5094217;28;20654;-68
2023/01/31 11:39:31;;;;;;;0.70;0.70;;;2.50;99.90;;;;;;5094713;28;20723;-69
2023/01/31 11:42:06;;;;;;;0.60;0.60;;;2.70;99.90;;;;;;5081154;28;20208;-68
2023/01/31 11:44:31;;;;;;;0.65;0.65;;;2.80;99.90;;;;;;5092881;28;20278;-69
2023/01/31 11:47:03;;;;;;;0.80;0.80;;;2.80;99.90;;;;;;5094222;28;20633;-69
2023/01/31 11:49:37;;;;;;;0.70;0.70;;;2.80;99.90;;;;;;5073759;28;20220;-70
2023/01/31 11:52:26;;;;;;;0.70;0.70;;;2.70;99.90;;;;;;5074134;28;20650;-68
2023/01/31 11:54:58;;;;;;;0.80;0.80;;;2.60;99.90;;;;;;5073782;28;20282;-70
2023/01/31 11:57:27;;;;;;;0.70;0.70;;;2.50;99.90;;;;;;5055888;28;20197;-69
2023/01/31 11:59:56;;;;;;;0.80;0.80;;;2.30;99.90;;;;;;5073323;28;20284;-69
2023/01/31 12:02:40;;;;;;;0.70;0.70;;;2.20;99.90;;;;;;5073348;28;20748;-70
2023/01/31 12:05:16;;;;;;;0.60;0.60;;;2.10;99.90;;;;;;5052158;28;20587;-70
2023/01/31 12:07:52;;;;;;;0.70;0.70;;;1.90;99.90;;;;;;5053528;28;20670;-70
2023/01/31 12:10:35;;;;;;;0.60;0.60;;;1.70;99.90;;;;;;5053833;28;20185;-70
2023/01/31 12:13:11;;;;;;;1.33;1.23;;;1.70;99.90;;;;;;5053967;28;20220;-70
2023/01/31 12:15:54;;;;;;;0.60;0.60;;;1.70;99.90;;;;;;5087369;28;20195;-70
2023/01/31 12:18:50;;;;;;;0.68;0.68;;;1.70;99.90;;;;;;5068419;28;20201;-70
2023/01/31 12:21:43;;;;;;;0.70;0.70;;;1.50;99.90;;;;;;5049075;28;20217;-69
2023/01/31 12:24:29;;;;;;;0.50;0.50;;;1.40;99.90;;;;;;5053434;28;20252;-69
2023/01/31 12:27:32;;;;;;;0.70;0.70;;;1.30;99.90;;;;;;5053291;28;20235;-70
2023/01/31 12:30:28;;;;;;;0.57;0.57;;;1.10;99.90;;;;;;5051949;28;20658;-69
2023/01/31 12:33:12;;;;;;;0.80;0.80;;;0.90;99.90;;;;;;5053203;28;20197;-70
2023/01/31 12:36:04;;;;;;;0.65;0.65;;;0.70;99.90;;;;;;5052971;28;20208;-70
2023/01/31 12:38:43;;;;;;;0.70;0.70;;;0.50;99.90;;;;;;5053093;28;20194;-70
2023/01/31 12:41:25;;;;;;;0.70;0.70;;;0.40;99.90;;;;;;5052001;28;20763;-70
2023/01/31 12:44:15;;;;;;;0.50;0.50;;;0.20;99.90;;;;;;5059735;28;20220;-69
2023/01/31 12:47:02;;;;;;;0.70;0.70;;;0.20;99.90;;;;;;5072853;28;20203;-71
2023/01/31 12:49:42;;;;;;;0.70;0.70;;;0.20;99.90;;;;;;5072997;28;20195;-70
2023/01/31 12:52:44;;;;;;;0.52;0.52;;;0.20;99.90;;;;;;5071566;28;20197;-70
2023/01/31 12:55:45;;;;;;;0.68;0.68;;;0.30;99.90;;;;;;5072906;28;20193;-69
2023/01/31 12:58:32;;;;;;;0.70;0.70;;;0.30;99.90;;;;;;5072838;28;20652;-70
2023/01/31 13:01:20;;;;;;;0.68;0.68;;;0.50;99.90;;;;;;5072725;28;20212;-70
2023/01/31 13:04:28;;;;;;;0.60;0.60;;;0.60;99.90;;;;;;5073310;28;20208;-70
2023/01/31 13:06:59;;;;;;;0.77;0.77;;;0.70;99.90;;;;;;5074644;28;20214;-70
2023/01/31 13:09:36;;;;;;;0.70;0.70;;;1.00;99.90;;;;;;5092744;28;20199;-70
2023/01/31 13:12:24;;;;;;;0.63;0.63;;;1.20;99.90;;;;;;5091699;28;20623;-69
2023/01/31 13:15:36;;;;;;;0.80;0.80;;;1.50;99.90;;;;;;5092782;28;20245;-69
2023/01/31 13:18:05;;;;;;;0.60;0.60;;;1.70;99.90;;;;;;5066881;28;20212;-70
2023/01/31 13:20:58;;;;;;;0.70;0.70;;;1.90;99.90;;;;;;5072546;28;20189;-71
2023/01/31 13:23:30;;;;;;;0.60;0.60;;;2.10;99.90;;;;;;5070067;28;20229;-69
2023/01/31 13:26:21;;;;;;;0.68;0.68;;;2.10;99.90;;;;;;5072762;28;20189;-70
2023/01/31 13:29:09;;;;;;;0.73;0.73;;;2.10;99.90;;;;;;5072589;28;20263;-71
2023/01/31 13:31:55;;;;;;;0.70;0.70;;;2.00;99.90;;;;;;5072575;28;20193;-70
2023/01/31 13:34:30;;;;;;;0.70;0.70;;;1.80;99.90;;;;;;5072208;28;20245;-70
2023/01/31 13:37:09;;;;;;;0.55;0.55;;;1.70;99.90;;;;;;5072545;28;20200;-70
2023/01/31 13:39:39;;;;;;;0.70;0.70;;;1.60;99.90;;;;;;5074666;28;20278;-70
2023/01/31 13:42:05;;;;;;;0.60;0.60;;;1.50;99.90;;;;;;5092498;28;20564;-70
2023/01/31 13:44:32;;;;;;;0.70;0.70;;;1.40;99.90;;;;;;5092452;28;20188;-69
2023/01/31 13:47:12;;;;;;;0.60;0.60;;;1.40;99.90;;;;;;5092514;28;20197;-69
2023/01/31 13:49:52;;;;;;;0.50;0.50;;;1.30;99.90;;;;;;5092385;28;20227;-71